Hauptseite
METAR-TAF:

METAR-TAF

Flughäfen :

Flughafen Sylt

Westerland, Deutschland

Breite: 54-55N, Länge: 008-21E, Höhe: 16 m

Beobachtung

Neuester Wetterbericht von vor 38 Minuten, um 18:20 UTC
Wind 8 kt aus Südwest
Temperatur 19°C
Luftfeuchtigkeit 78%
Luftdruck 1016 hPa
Sichtweite 10 km oder mehr
keine Wolken unter 1500 m und keine Kumulonimbus oder Gewitterwolken

METAR: EDXW 051820Z 23008KT CAVOK 19/15 Q1016

Zeit: 20:58 (18:58 UTC)

Prognose

Neuester Wetterbericht von vor 1 Stunde und 58 Minuten, um 17:00 UTC
Gültige Prognose vom 05 um 18 UTC bis 05 um 21 UTC
Wind 11 kt aus Südwest
Sichtweite 10 km oder mehr
keine Wolken unter 1500 m und keine Kumulonimbus oder Gewitterwolken
Übergehend zu
vom 05 um 18 UTC bis 05 um 20 UTC
Wind 6 kt aus Süd/Südwest

TAF: EDXW 051700Z 0518/0521 22011KT CAVOK BECMG 0518/0520 21006KT

Wetterbeobachtungen und Prognosen von mehr als 4000 Flughäfen (METAR und TAF Bericht).

Die verfügbaren Stationen werden durch gelbe und rote Markierungen auf der Karte dargestellt.

Führen Sie die Maus auf sie, um den Namen der Station zu sehen.

Darauf klicken, um die Beobachtung von Wetterbeobachtungen und Prognosen zu sehen.

Um die Karte zu ändern : klicken Sie auf den grünen Tasten mit einem schwarzen Kreuz Zum Vergrößern, auf den grünen Button mit einem Gedankenstrich zu verkleinern, oder auf die grünen Pfeile für benachbarte Karten.


METAR-TAF: